createdAt,value
2023-01-30T00:02:10.563Z,78.67
2023-01-30T00:04:38.569Z,77.42
2023-01-30T00:07:06.777Z,77.23
2023-01-30T00:09:34.740Z,77.66
2023-01-30T00:12:04.067Z,76.77
2023-01-30T00:14:32.012Z,76.29
2023-01-30T00:17:00.103Z,77.17
2023-01-30T00:19:28.103Z,76.65
2023-01-30T00:21:55.956Z,75.95
2023-01-30T00:24:24.093Z,75.46
2023-01-30T00:26:52.109Z,74.65
2023-01-30T00:29:21.462Z,75.22
2023-01-30T00:31:49.356Z,74.21
2023-01-30T00:34:17.515Z,74.41
2023-01-30T00:36:47.725Z,75.27
2023-01-30T00:39:19.206Z,74.82
2023-01-30T00:42:04.911Z,74.75
2023-01-30T00:44:52.131Z,74.58
2023-01-30T00:47:20.113Z,74.71
2023-01-30T00:49:48.349Z,75.39
2023-01-30T00:52:16.401Z,75.17
2023-01-30T00:54:44.301Z,74.23
2023-01-30T00:57:12.251Z,74.64
2023-01-30T00:59:41.545Z,74.32
2023-01-30T01:02:09.462Z,75.26
2023-01-30T01:04:43.439Z,74.95
2023-01-30T01:07:11.949Z,75.28
2023-01-30T01:09:40.116Z,74.84
2023-01-30T01:12:08.267Z,74.76
2023-01-30T01:14:36.462Z,75.21
2023-01-30T01:17:06.029Z,75.55
2023-01-30T01:19:34.958Z,74.79
2023-01-30T01:22:03.019Z,74.44
2023-01-30T01:24:31.147Z,74.48
2023-01-30T01:26:59.896Z,74.59
2023-01-30T01:29:27.784Z,74.60
2023-01-30T01:31:55.784Z,76.09
2023-01-30T01:34:25.187Z,75.36
2023-01-30T01:36:54.369Z,75.36
2023-01-30T01:39:23.237Z,76.22
2023-01-30T01:41:50.130Z,76.82
2023-01-30T01:44:18.162Z,77.06
2023-01-30T01:46:51.217Z,77.29
2023-01-30T01:49:24.045Z,77.03
2023-01-30T01:51:58.169Z,76.94
2023-01-30T01:54:33.639Z,76.58
2023-01-30T01:57:04.179Z,76.24
2023-01-30T01:59:36.048Z,76.04
2023-01-30T02:02:09.085Z,75.58
2023-01-30T02:04:57.192Z,76.80
2023-01-30T02:07:27.315Z,76.28
2023-01-30T02:09:55.357Z,75.99
2023-01-30T02:12:23.357Z,75.06
2023-01-30T02:14:51.783Z,75.00
2023-01-30T02:17:20.453Z,74.62
2023-01-30T02:19:53.776Z,74.58
2023-01-30T02:22:54.016Z,74.51
2023-01-30T02:25:50.262Z,74.79
2023-01-30T02:28:47.778Z,74.49
2023-01-30T02:31:26.676Z,75.06
2023-01-30T02:34:06.877Z,73.46
2023-01-30T02:36:46.296Z,73.23
2023-01-30T02:39:26.499Z,72.83
2023-01-30T02:42:06.627Z,72.31
2023-01-30T02:44:41.034Z,72.51
2023-01-30T02:47:14.914Z,73.57
2023-01-30T02:49:49.693Z,73.30
2023-01-30T02:52:18.564Z,73.91
2023-01-30T02:54:46.614Z,73.65
2023-01-30T02:57:21.620Z,73.76
2023-01-30T02:59:53.650Z,74.06
2023-01-30T03:02:50.777Z,73.49
2023-01-30T03:05:33.031Z,73.39
2023-01-30T03:08:10.480Z,74.03
2023-01-30T03:10:43.872Z,73.86
2023-01-30T03:13:18.545Z,73.85
2023-01-30T03:15:50.997Z,74.49
2023-01-30T03:18:21.836Z,74.37
2023-01-30T03:20:49.853Z,74.53
2023-01-30T03:23:17.911Z,74.39
2023-01-30T03:25:48.913Z,73.33
2023-01-30T03:28:21.148Z,73.25
2023-01-30T03:30:49.219Z,73.62
2023-01-30T03:33:17.286Z,73.14
2023-01-30T03:35:46.542Z,72.85
2023-01-30T03:38:14.786Z,72.44
2023-01-30T03:40:42.797Z,72.72
2023-01-30T03:43:11.038Z,72.48
2023-01-30T03:45:38.916Z,71.63
2023-01-30T03:48:07.192Z,71.52
2023-01-30T03:50:35.140Z,71.54
2023-01-30T03:53:04.497Z,70.45
2023-01-30T03:55:32.438Z,71.92
2023-01-30T03:58:00.412Z,71.90
2023-01-30T04:00:28.555Z,72.50
2023-01-30T04:02:57.358Z,71.63
2023-01-30T04:05:25.498Z,72.47
2023-01-30T04:07:57.226Z,73.23
2023-01-30T04:10:27.067Z,73.00
2023-01-30T04:12:55.391Z,72.29
2023-01-30T04:15:23.392Z,72.94
2023-01-30T04:17:51.337Z,72.02
2023-01-30T04:20:20.533Z,70.16
2023-01-30T04:22:48.459Z,71.24
2023-01-30T04:25:16.995Z,71.05
2023-01-30T04:27:46.799Z,70.21
2023-01-30T04:30:16.269Z,71.13
2023-01-30T04:32:44.219Z,71.19
2023-01-30T04:35:12.452Z,71.12
2023-01-30T04:37:40.483Z,70.54
2023-01-30T04:40:09.459Z,70.46
2023-01-30T04:42:38.234Z,70.00
2023-01-30T04:45:08.886Z,70.03
2023-01-30T04:47:36.875Z,71.60
2023-01-30T04:50:05.161Z,71.47
2023-01-30T04:52:33.120Z,71.60
2023-01-30T04:55:01.117Z,70.69
2023-01-30T04:57:29.079Z,71.57
2023-01-30T04:59:57.019Z,71.07
2023-01-30T05:02:26.511Z,70.63
2023-01-30T05:04:54.522Z,71.60
2023-01-30T05:07:22.420Z,71.27
2023-01-30T05:09:50.403Z,71.60
2023-01-30T05:12:18.404Z,72.32
2023-01-30T05:14:46.966Z,72.56
2023-01-30T05:17:15.016Z,72.72
2023-01-30T05:19:44.591Z,72.40
2023-01-30T05:22:12.544Z,71.88
2023-01-30T05:24:40.544Z,70.41
2023-01-30T05:27:08.631Z,70.44
2023-01-30T05:29:36.600Z,71.94
2023-01-30T05:32:05.376Z,71.68
2023-01-30T05:34:33.333Z,71.19
2023-01-30T05:37:02.635Z,72.08
2023-01-30T05:39:30.626Z,71.23
2023-01-30T05:41:58.743Z,71.12
2023-01-30T05:44:26.702Z,71.60
2023-01-30T05:46:54.719Z,70.34
2023-01-30T05:49:22.739Z,70.93
2023-01-30T05:51:51.668Z,70.41
2023-01-30T05:54:21.194Z,70.19
2023-01-30T05:56:50.667Z,71.02
2023-01-30T05:59:19.691Z,70.56
2023-01-30T06:01:47.832Z,71.66
2023-01-30T06:04:15.811Z,71.17
2023-01-30T06:06:43.826Z,71.36
2023-01-30T06:09:12.131Z,70.58
2023-01-30T06:11:41.644Z,70.72
2023-01-30T06:14:10.880Z,70.43
2023-01-30T06:16:38.912Z,71.20
2023-01-30T06:19:06.934Z,71.55
2023-01-30T06:21:34.982Z,70.28
2023-01-30T06:24:03.635Z,70.65
2023-01-30T06:26:31.701Z,70.71
2023-01-30T06:29:01.180Z,69.49
2023-01-30T06:31:29.178Z,70.26
2023-01-30T06:33:57.219Z,69.88
2023-01-30T06:36:25.131Z,70.33
2023-01-30T06:38:53.277Z,70.43
2023-01-30T06:41:21.424Z,70.28
2023-01-30T06:43:49.413Z,70.48
2023-01-30T06:46:18.755Z,69.83
2023-01-30T06:48:46.719Z,70.41
2023-01-30T06:51:14.733Z,69.00
2023-01-30T06:53:42.843Z,69.32
2023-01-30T06:56:10.883Z,69.93
2023-01-30T06:58:38.979Z,70.11
2023-01-30T07:01:07.156Z,69.62
2023-01-30T07:03:36.471Z,69.40
2023-01-30T07:06:04.483Z,70.01
2023-01-30T07:08:32.587Z,70.31
2023-01-30T07:11:00.535Z,69.97
2023-01-30T07:13:28.588Z,70.09
2023-01-30T07:15:56.637Z,70.36
2023-01-30T07:18:24.630Z,70.77
2023-01-30T07:20:53.997Z,70.42
2023-01-30T07:23:22.120Z,70.91
2023-01-30T07:25:50.173Z,70.29
2023-01-30T07:28:18.269Z,70.21
2023-01-30T07:30:46.283Z,70.53
2023-01-30T07:33:14.388Z,70.32
2023-01-30T07:35:42.329Z,70.57
2023-01-30T07:38:11.741Z,69.80
2023-01-30T07:40:39.729Z,70.29
2023-01-30T07:43:10.043Z,70.11
2023-01-30T07:45:40.534Z,70.68
2023-01-30T07:48:08.637Z,71.11
2023-01-30T07:50:36.754Z,70.58
2023-01-30T07:53:05.596Z,70.64
2023-01-30T07:55:35.766Z,70.22
2023-01-30T07:58:03.890Z,70.30
2023-01-30T08:00:32.680Z,70.05
2023-01-30T08:03:01.059Z,70.47
2023-01-30T08:05:29.340Z,70.24
2023-01-30T08:07:58.254Z,69.84
2023-01-30T08:10:26.334Z,69.72
2023-01-30T08:12:55.698Z,70.10
2023-01-30T08:15:23.758Z,69.32
2023-01-30T08:17:56.271Z,69.45
2023-01-30T08:20:24.844Z,70.04
2023-01-30T08:22:52.845Z,69.85
2023-01-30T08:25:21.008Z,69.35
2023-01-30T08:27:49.109Z,68.24
2023-01-30T08:30:20.205Z,67.28
2023-01-30T08:32:50.927Z,66.92
2023-01-30T08:35:19.293Z,67.84
2023-01-30T08:37:47.355Z,67.80
2023-01-30T08:40:16.561Z,66.72
2023-01-30T08:42:46.375Z,67.08
2023-01-30T08:45:14.646Z,66.81
2023-01-30T08:47:44.184Z,66.49
2023-01-30T08:50:13.004Z,67.55
2023-01-30T08:52:40.925Z,66.76
2023-01-30T08:55:09.493Z,66.88
2023-01-30T08:57:37.485Z,67.05
2023-01-30T09:00:06.481Z,67.44
2023-01-30T09:02:34.543Z,66.29
2023-01-30T09:05:03.903Z,65.88
2023-01-30T09:07:32.035Z,66.49
2023-01-30T09:09:59.951Z,64.82
2023-01-30T09:12:28.304Z,65.63
2023-01-30T09:14:58.514Z,64.78
2023-01-30T09:17:26.625Z,64.96
2023-01-30T09:19:55.369Z,65.38
2023-01-30T09:22:25.998Z,64.24
2023-01-30T09:24:54.394Z,64.21
2023-01-30T09:27:22.348Z,64.25
2023-01-30T09:29:50.359Z,63.50
2023-01-30T09:32:18.471Z,63.94
2023-01-30T09:34:46.604Z,65.34
2023-01-30T09:37:14.803Z,64.00
2023-01-30T09:39:44.082Z,63.38
2023-01-30T09:42:35.090Z,63.92
2023-01-30T09:45:31.114Z,63.99
2023-01-30T09:48:07.445Z,64.38
2023-01-30T09:51:00.317Z,64.24
2023-01-30T09:53:35.517Z,64.19
2023-01-30T09:56:05.299Z,65.01
2023-01-30T09:58:43.995Z,64.96
2023-01-30T10:01:22.128Z,65.39
2023-01-30T10:04:02.524Z,66.67
2023-01-30T10:06:32.517Z,65.47
2023-01-30T10:09:08.198Z,65.23
2023-01-30T10:11:52.645Z,64.84
2023-01-30T10:14:39.488Z,64.11
2023-01-30T10:17:33.006Z,64.67
2023-01-30T10:20:31.789Z,62.89
2023-01-30T10:23:38.227Z,62.39
2023-01-30T10:26:11.568Z,62.90
2023-01-30T10:28:52.427Z,62.54
2023-01-30T10:31:30.873Z,64.77
2023-01-30T10:34:03.609Z,64.62
2023-01-30T10:36:38.176Z,64.81
2023-01-30T10:39:22.021Z,65.26
2023-01-30T10:41:55.777Z,64.48
2023-01-30T10:44:25.960Z,62.19
2023-01-30T10:47:10.091Z,62.26
2023-01-30T10:49:43.047Z,61.84
2023-01-30T10:52:28.223Z,61.16
2023-01-30T10:55:04.265Z,62.47
2023-01-30T10:57:44.367Z,63.38
2023-01-30T11:00:24.629Z,62.89
2023-01-30T11:03:04.343Z,62.80
2023-01-30T11:05:41.461Z,61.65
2023-01-30T11:08:19.659Z,60.89
2023-01-30T11:10:47.780Z,61.95
2023-01-30T11:13:19.132Z,61.81
2023-01-30T11:15:51.396Z,62.51
2023-01-30T11:21:15.212Z,60.16
2023-01-30T11:23:44.210Z,60.86
2023-01-30T11:26:20.736Z,61.32
2023-01-30T11:28:49.137Z,59.97
2023-01-30T11:31:40.270Z,59.20
2023-01-30T11:34:16.736Z,58.92
2023-01-30T11:36:47.207Z,59.37
2023-01-30T11:39:29.570Z,59.15
2023-01-30T11:42:05.107Z,60.86
2023-01-30T11:44:35.799Z,60.76
2023-01-30T11:47:18.227Z,57.35
2023-01-30T11:49:59.666Z,55.47
2023-01-30T11:52:45.382Z,54.09
2023-01-30T11:55:16.855Z,54.31
2023-01-30T11:57:46.735Z,54.44
2023-01-30T12:00:20.615Z,56.20
2023-01-30T12:02:52.061Z,55.61
2023-01-30T12:05:26.793Z,52.96
2023-01-30T12:07:54.868Z,53.55
2023-01-30T12:10:31.628Z,52.39
2023-01-30T12:13:03.875Z,52.30
2023-01-30T12:15:34.411Z,51.79
2023-01-30T12:18:11.838Z,53.47
2023-01-30T12:20:52.272Z,51.84
2023-01-30T12:23:26.871Z,52.81
2023-01-30T12:26:02.531Z,51.86
2023-01-30T12:28:37.115Z,52.14
2023-01-30T12:31:10.222Z,52.56
2023-01-30T12:33:39.742Z,52.00
2023-01-30T12:36:17.482Z,52.57
2023-01-30T12:39:06.146Z,52.73
2023-01-30T12:41:48.003Z,52.71
2023-01-30T12:44:29.468Z,53.25
2023-01-30T12:47:15.259Z,52.98
2023-01-30T12:50:07.659Z,53.58
2023-01-30T12:52:48.278Z,53.07
2023-01-30T12:55:27.937Z,53.41
2023-01-30T12:58:01.820Z,53.07
2023-01-30T13:00:44.131Z,52.29
2023-01-30T13:03:24.656Z,51.93
2023-01-30T13:06:04.063Z,52.15
2023-01-30T13:08:43.826Z,52.45
2023-01-30T13:11:29.671Z,52.99
2023-01-30T13:14:02.311Z,52.99
2023-01-30T13:16:42.546Z,52.80
2023-01-30T13:19:20.903Z,53.54
2023-01-30T13:21:57.723Z,52.17
2023-01-30T13:24:35.393Z,53.02
2023-01-30T13:27:09.449Z,52.92
2023-01-30T13:29:40.112Z,55.02
2023-01-30T13:32:16.804Z,53.94
2023-01-30T13:34:47.993Z,53.71
2023-01-30T13:37:19.090Z,53.09
2023-01-30T13:39:52.530Z,53.44
2023-01-30T13:42:34.066Z,53.85
2023-01-30T13:45:05.388Z,53.92
2023-01-30T13:47:46.728Z,54.59
2023-01-30T13:50:31.840Z,53.92
2023-01-30T13:53:07.982Z,55.15
2023-01-30T13:55:42.975Z,54.80
2023-01-30T13:58:22.152Z,54.90
2023-01-30T14:00:54.423Z,54.43
2023-01-30T14:03:31.741Z,55.50
2023-01-30T14:06:11.750Z,55.38
2023-01-30T14:08:53.478Z,55.43
2023-01-30T14:11:35.468Z,55.29
2023-01-30T14:14:07.539Z,55.97
2023-01-30T14:16:44.585Z,56.54
2023-01-30T14:19:36.112Z,57.49
2023-01-30T14:22:17.611Z,58.03
2023-01-30T14:25:07.080Z,58.86
2023-01-30T14:27:35.062Z,58.49
2023-01-30T14:30:03.134Z,58.77
2023-01-30T14:32:52.259Z,59.87
2023-01-30T14:35:37.824Z,60.25
2023-01-30T14:38:13.741Z,60.83
2023-01-30T14:41:25.636Z,60.74
2023-01-30T14:43:54.497Z,60.55
2023-01-30T14:46:57.227Z,60.97
2023-01-30T14:49:29.492Z,62.02
2023-01-30T14:51:57.772Z,62.23
2023-01-30T14:54:41.256Z,62.35
2023-01-30T14:57:22.968Z,61.77
2023-01-30T15:00:12.219Z,61.81
2023-01-30T15:02:44.689Z,60.62
2023-01-30T15:05:15.860Z,60.75
2023-01-30T15:07:48.424Z,60.12
2023-01-30T15:10:34.077Z,60.67
2023-01-30T15:13:24.481Z,61.62
2023-01-30T15:16:05.423Z,61.94
2023-01-30T15:18:47.167Z,62.81
2023-01-30T15:21:30.683Z,62.92
2023-01-30T15:24:14.327Z,62.71
2023-01-30T15:26:54.383Z,62.93
2023-01-30T15:29:40.788Z,63.16
2023-01-30T15:32:18.951Z,63.71
2023-01-30T15:34:55.497Z,64.46
2023-01-30T15:37:35.236Z,64.08
2023-01-30T15:40:24.412Z,63.99
2023-01-30T15:42:57.090Z,64.57
2023-01-30T15:45:43.191Z,65.30
2023-01-30T15:48:34.273Z,65.77
2023-01-30T15:51:03.743Z,65.88
2023-01-30T15:53:35.849Z,66.22
2023-01-30T15:56:08.246Z,66.35
2023-01-30T15:58:41.104Z,66.55
2023-01-30T16:01:15.471Z,66.54
2023-01-30T16:03:44.015Z,66.74
2023-01-30T16:06:23.830Z,66.84
2023-01-30T16:09:00.789Z,66.19
2023-01-30T16:11:39.756Z,66.82
2023-01-30T16:14:12.302Z,66.73
2023-01-30T16:16:43.640Z,66.93
2023-01-30T16:19:21.287Z,66.07
2023-01-30T16:21:49.862Z,65.67
2023-01-30T16:24:21.445Z,65.35
2023-01-30T16:26:52.608Z,65.48
2023-01-30T16:29:24.065Z,65.13
2023-01-30T16:31:55.600Z,65.70
2023-01-30T16:34:31.187Z,65.70
2023-01-30T16:37:05.451Z,65.41
2023-01-30T16:39:35.419Z,66.29
2023-01-30T16:42:05.234Z,66.74
2023-01-30T16:44:34.035Z,66.63
2023-01-30T16:47:05.959Z,66.22
2023-01-30T16:49:43.245Z,65.61
2023-01-30T16:52:23.670Z,64.99
2023-01-30T16:54:53.788Z,64.45
2023-01-30T16:57:36.214Z,66.21
2023-01-30T17:00:10.161Z,65.73
2023-01-30T17:02:42.655Z,65.79
2023-01-30T17:05:19.636Z,65.74
2023-01-30T17:07:48.988Z,66.03
2023-01-30T17:10:54.706Z,66.12
2023-01-30T17:13:34.984Z,66.82
2023-01-30T17:16:33.065Z,67.12
2023-01-30T17:19:02.961Z,67.87
2023-01-30T17:21:36.172Z,67.63
2023-01-30T17:24:06.319Z,67.46
2023-01-30T17:26:34.945Z,68.16
2023-01-30T17:29:02.994Z,67.62
2023-01-30T17:31:31.083Z,66.93
2023-01-30T17:33:59.097Z,67.00
2023-01-30T17:36:29.927Z,67.61
2023-01-30T17:38:59.978Z,67.17
2023-01-30T17:41:30.947Z,67.94
2023-01-30T17:43:59.273Z,67.50
2023-01-30T17:46:33.695Z,67.73
2023-01-30T17:49:01.826Z,68.28
2023-01-30T17:51:31.258Z,68.75
2023-01-30T17:53:59.281Z,68.22
2023-01-30T17:56:32.518Z,67.63
2023-01-30T17:59:00.504Z,67.84
2023-01-30T18:01:28.572Z,68.06
2023-01-30T18:03:57.817Z,68.20
2023-01-30T18:06:27.265Z,68.83
2023-01-30T18:08:56.979Z,70.77
2023-01-30T18:11:24.979Z,70.37
2023-01-30T18:13:53.051Z,71.15
2023-01-30T18:16:24.635Z,71.35
2023-01-30T18:18:53.240Z,70.39
2023-01-30T18:21:22.636Z,70.70
2023-01-30T18:23:51.099Z,70.53
2023-01-30T18:26:20.637Z,71.42
2023-01-30T18:28:49.302Z,71.14
2023-01-30T18:31:18.210Z,70.83
2023-01-30T18:33:46.185Z,70.91
2023-01-30T18:36:16.237Z,71.04
2023-01-30T18:38:44.818Z,71.39
2023-01-30T18:41:15.291Z,71.58
2023-01-30T18:43:45.776Z,71.95
2023-01-30T18:46:16.478Z,71.74
2023-01-30T18:48:45.762Z,71.63
2023-01-30T18:51:15.820Z,71.40
2023-01-30T18:53:44.638Z,71.66
2023-01-30T18:56:16.030Z,72.32
2023-01-30T18:58:45.655Z,72.21
2023-01-30T19:01:16.371Z,71.68
2023-01-30T19:03:44.849Z,72.09
2023-01-30T19:06:15.309Z,72.24
2023-01-30T19:08:43.521Z,72.83
2023-01-30T19:11:30.885Z,72.78
2023-01-30T19:14:01.214Z,73.32
2023-01-30T19:16:31.050Z,72.61
2023-01-30T19:19:01.021Z,73.64
2023-01-30T19:21:29.758Z,72.53
2023-01-30T19:23:57.888Z,72.61
2023-01-30T19:26:26.259Z,72.87
2023-01-30T19:28:54.742Z,71.24
2023-01-30T19:31:24.328Z,71.59
2023-01-30T19:33:56.331Z,71.43
2023-01-30T19:36:26.153Z,71.66
2023-01-30T19:38:54.298Z,72.02
2023-01-30T19:41:24.941Z,72.55
2023-01-30T19:43:54.159Z,72.46
2023-01-30T19:46:24.411Z,73.04
2023-01-30T19:48:52.627Z,72.91
2023-01-30T19:51:22.288Z,72.56
2023-01-30T19:53:52.995Z,72.70
2023-01-30T19:56:22.334Z,73.01
2023-01-30T19:58:51.579Z,72.72
2023-01-30T20:01:21.448Z,74.32
2023-01-30T20:03:51.258Z,75.23
2023-01-30T20:06:20.706Z,75.39
2023-01-30T20:08:50.833Z,74.93
2023-01-30T20:11:21.822Z,75.58
2023-01-30T20:13:50.657Z,75.09
2023-01-30T20:16:20.804Z,75.65
2023-01-30T20:18:54.854Z,75.54
2023-01-30T20:21:23.162Z,75.85
2023-01-30T20:23:52.043Z,75.97
2023-01-30T20:26:22.096Z,76.07
2023-01-30T20:28:51.046Z,76.01
2023-01-30T20:31:21.201Z,76.13
2023-01-30T20:33:51.203Z,75.85
2023-01-30T20:36:20.564Z,76.06
2023-01-30T20:38:50.186Z,77.32
2023-01-30T20:41:20.188Z,77.36
2023-01-30T20:43:51.125Z,76.71
2023-01-30T20:46:21.136Z,77.07
2023-01-30T20:48:53.480Z,76.80
2023-01-30T20:51:24.155Z,76.13
2023-01-30T20:53:54.056Z,76.45
2023-01-30T20:56:23.737Z,76.64
2023-01-30T20:58:51.968Z,76.91
2023-01-30T21:01:21.881Z,76.48
2023-01-30T21:03:53.139Z,77.63
2023-01-30T21:06:41.773Z,76.07
2023-01-30T21:09:14.886Z,76.43
2023-01-30T21:11:42.862Z,76.25
2023-01-30T21:14:10.922Z,76.50
2023-01-30T21:16:39.565Z,76.58
2023-01-30T21:19:15.153Z,76.36
2023-01-30T21:21:50.592Z,75.61
2023-01-30T21:24:21.634Z,76.47
2023-01-30T21:26:50.198Z,76.50
2023-01-30T21:29:21.510Z,76.85
2023-01-30T21:31:49.605Z,75.69
2023-01-30T21:34:19.034Z,75.34
2023-01-30T21:37:07.851Z,75.84
2023-01-30T21:39:53.641Z,75.07
2023-01-30T21:42:39.264Z,74.99
2023-01-30T21:45:08.396Z,74.88
2023-01-30T21:47:37.025Z,75.32
2023-01-30T21:50:07.350Z,75.52
2023-01-30T21:52:35.290Z,75.42
2023-01-30T21:55:03.343Z,75.24
2023-01-30T21:57:31.234Z,76.09
2023-01-30T21:59:59.227Z,75.37
2023-01-30T22:02:27.289Z,75.50
2023-01-30T22:04:55.750Z,75.28
2023-01-30T22:07:25.237Z,75.61
2023-01-30T22:09:53.225Z,75.60
2023-01-30T22:12:21.286Z,76.54
2023-01-30T22:14:49.320Z,76.82
2023-01-30T22:17:17.507Z,77.24
2023-01-30T22:19:46.311Z,77.00
2023-01-30T22:22:14.335Z,76.84
2023-01-30T22:24:43.644Z,76.13
2023-01-30T22:27:11.577Z,76.20
2023-01-30T22:29:39.712Z,76.58
2023-01-30T22:32:07.710Z,76.97
2023-01-30T22:34:36.117Z,75.78
2023-01-30T22:37:04.285Z,74.98
2023-01-30T22:39:32.222Z,74.97
2023-01-30T22:42:01.589Z,74.86
2023-01-30T22:44:29.520Z,74.76
2023-01-30T22:46:57.461Z,74.29
2023-01-30T22:49:25.452Z,73.60
2023-01-30T22:51:53.372Z,73.38
2023-01-30T22:54:21.318Z,72.98
2023-01-30T22:56:53.308Z,72.57
2023-01-30T22:59:22.914Z,71.72
2023-01-30T23:01:52.054Z,70.75
2023-01-30T23:04:21.505Z,71.19
2023-01-30T23:06:51.424Z,70.64
2023-01-30T23:09:21.705Z,70.36
2023-01-30T23:12:05.724Z,69.07
2023-01-30T23:14:35.729Z,68.21
2023-01-30T23:17:25.376Z,67.63
2023-01-30T23:19:52.656Z,67.34
2023-01-30T23:22:20.708Z,66.76
2023-01-30T23:24:49.091Z,66.57
2023-01-30T23:27:17.169Z,65.60
2023-01-30T23:29:46.542Z,65.85
2023-01-30T23:32:15.092Z,66.03
2023-01-30T23:34:43.256Z,65.90
2023-01-30T23:37:11.143Z,66.51
2023-01-30T23:39:39.066Z,66.38
2023-01-30T23:42:07.036Z,66.06
2023-01-30T23:44:35.481Z,65.50
2023-01-30T23:47:04.947Z,63.97
2023-01-30T23:49:32.880Z,63.88
2023-01-30T23:52:00.789Z,63.38
2023-01-30T23:54:28.979Z,63.07
2023-01-30T23:56:56.899Z,62.15
2023-01-30T23:59:24.822Z,61.98
